createdAt,value
2019-01-08T00:00:38.567Z,-6.78
2019-01-08T00:03:04.799Z,-6.79
2019-01-08T00:05:31.043Z,-6.81
2019-01-08T00:07:57.179Z,-6.82
2019-01-08T00:10:23.436Z,-6.87
2019-01-08T00:12:49.662Z,-6.96
2019-01-08T00:15:15.891Z,-7.04
2019-01-08T00:17:42.131Z,-7.05
2019-01-08T00:20:08.385Z,-7.05
2019-01-08T00:22:34.615Z,-7.05
2019-01-08T00:25:00.842Z,-7.06
2019-01-08T00:27:27.104Z,-7.14
2019-01-08T00:29:53.332Z,-7.19
2019-01-08T00:32:19.479Z,-7.23
2019-01-08T00:34:45.707Z,-7.26
2019-01-08T00:37:11.960Z,-7.27
2019-01-08T00:39:38.203Z,-7.28
2019-01-08T00:42:04.350Z,-7.29
2019-01-08T00:44:30.480Z,-7.31
2019-01-08T00:46:56.749Z,-7.32
2019-01-08T00:49:22.988Z,-7.34
2019-01-08T00:51:49.240Z,-9.04
2019-01-08T00:54:15.480Z,-7.41
2019-01-08T00:56:41.715Z,-7.46
2019-01-08T00:59:07.951Z,-7.55
2019-01-08T01:01:34.097Z,-7.57
2019-01-08T01:04:00.334Z,-7.60
2019-01-08T01:07:25.843Z,-7.62
2019-01-08T01:09:52.147Z,-7.66
2019-01-08T01:12:18.403Z,-7.72
2019-01-08T01:14:44.702Z,-7.81
2019-01-08T01:17:10.974Z,-7.87
2019-01-08T01:19:37.231Z,-8.56
2019-01-08T01:22:03.515Z,-7.98
2019-01-08T01:24:29.785Z,-8.05
2019-01-08T01:26:56.052Z,-8.16
2019-01-08T01:29:22.308Z,-8.27
2019-01-08T01:31:48.559Z,-8.33
2019-01-08T01:34:14.800Z,-8.40
2019-01-08T01:36:41.033Z,-8.47
2019-01-08T01:39:07.285Z,-8.50
2019-01-08T01:41:33.517Z,-8.53
2019-01-08T01:43:59.768Z,-8.56
2019-01-08T01:46:25.899Z,-8.59
2019-01-08T01:48:59.331Z,-8.65
2019-01-08T01:51:25.569Z,-8.70
2019-01-08T01:53:51.721Z,-8.74
2019-01-08T01:56:17.948Z,-8.73
2019-01-08T01:58:44.194Z,-8.72
2019-01-08T02:01:10.336Z,-8.73
2019-01-08T02:03:36.588Z,-8.76
2019-01-08T02:06:02.837Z,-8.74
2019-01-08T02:08:29.086Z,-8.72
2019-01-08T02:10:55.327Z,-8.69
2019-01-08T02:13:21.572Z,-8.69
2019-01-08T02:15:47.708Z,-8.69
2019-01-08T02:18:13.954Z,-8.73
2019-01-08T02:20:40.184Z,-10.05
2019-01-08T02:23:06.430Z,-8.78
2019-01-08T02:25:32.559Z,-8.82
2019-01-08T02:27:58.809Z,-8.80
2019-01-08T02:30:25.046Z,-8.79
2019-01-08T02:32:51.277Z,-8.78
2019-01-08T02:35:17.522Z,-8.73
2019-01-08T02:37:43.670Z,-8.66
2019-01-08T02:40:09.937Z,-8.63
2019-01-08T02:42:36.187Z,-8.57
2019-01-08T02:47:56.599Z,-8.42
2019-01-08T02:50:22.851Z,-8.32
2019-01-08T02:52:49.087Z,-8.29
2019-01-08T02:55:15.347Z,-8.27
2019-01-08T02:57:41.581Z,-8.24
2019-01-08T03:00:07.829Z,-8.24
2019-01-08T03:02:33.963Z,-8.23
2019-01-08T03:05:00.225Z,-8.23
2019-01-08T03:07:26.444Z,-8.26
2019-01-08T03:09:52.693Z,-8.24
2019-01-08T03:12:18.829Z,-8.24
2019-01-08T03:14:44.979Z,-8.22
2019-01-08T03:17:11.217Z,-8.16
2019-01-08T03:19:37.373Z,-8.11
2019-01-08T03:22:03.602Z,-8.13
2019-01-08T03:24:29.844Z,-8.15
2019-01-08T03:26:56.083Z,-8.15
2019-01-08T03:29:22.246Z,-8.14
2019-01-08T03:31:48.490Z,-8.10
2019-01-08T03:34:14.746Z,-8.11
2019-01-08T03:36:41.004Z,-8.10
2019-01-08T03:39:07.232Z,-8.11
2019-01-08T03:41:33.476Z,-8.13
2019-01-08T03:43:59.611Z,-8.09
2019-01-08T03:46:25.865Z,-8.09
2019-01-08T03:48:52.104Z,-8.10
2019-01-08T03:51:18.362Z,-8.13
2019-01-08T03:53:44.584Z,-8.15
2019-01-08T03:56:10.844Z,-8.21
2019-01-08T03:58:37.076Z,-8.22
2019-01-08T04:01:03.327Z,-8.23
2019-01-08T04:03:29.567Z,-8.23
2019-01-08T04:05:55.817Z,-8.25
2019-01-08T04:08:22.054Z,-8.30
2019-01-08T04:10:48.298Z,-8.36
2019-01-08T04:13:14.550Z,-8.36
2019-01-08T04:15:40.810Z,-8.37
2019-01-08T04:18:06.938Z,-8.40
2019-01-08T04:20:33.225Z,-8.40
2019-01-08T04:22:59.420Z,-8.35
2019-01-08T04:25:25.673Z,-8.32
2019-01-08T04:27:51.911Z,-8.30
2019-01-08T04:30:18.042Z,-8.31
2019-01-08T04:32:44.192Z,-8.30
2019-01-08T04:35:10.428Z,-8.33
2019-01-08T04:37:36.564Z,-8.31
2019-01-08T04:43:03.851Z,-8.39
2019-01-08T04:45:30.093Z,-8.45
2019-01-08T04:47:56.234Z,-8.47
2019-01-08T04:50:22.474Z,-8.49
2019-01-08T04:52:48.723Z,-8.50
2019-01-08T04:55:14.855Z,-8.48
2019-01-08T04:57:41.101Z,-8.47
2019-01-08T05:00:48.639Z,-8.47
2019-01-08T05:03:14.779Z,-8.48
2019-01-08T05:05:41.015Z,-8.51
2019-01-08T05:08:07.266Z,-8.50
2019-01-08T05:10:33.502Z,-8.54
2019-01-08T05:12:59.755Z,-8.56
2019-01-08T05:15:25.994Z,-8.54
2019-01-08T05:17:52.245Z,-8.50
2019-01-08T05:20:18.492Z,-8.53
2019-01-08T05:22:44.740Z,-8.51
2019-01-08T05:25:10.976Z,-8.48
2019-01-08T05:27:37.224Z,-8.50
2019-01-08T05:32:53.566Z,-8.49
2019-01-08T05:35:19.798Z,-8.50
2019-01-08T05:37:46.047Z,-8.51
2019-01-08T05:40:12.283Z,-8.51
2019-01-08T05:42:38.535Z,-8.53
2019-01-08T05:45:04.776Z,-8.53
2019-01-08T05:47:31.028Z,-8.53
2019-01-08T05:49:57.163Z,-8.51
2019-01-08T05:52:23.404Z,-8.49
2019-01-08T05:54:49.558Z,-8.50
2019-01-08T05:57:15.699Z,-8.51
2019-01-08T05:59:41.929Z,-8.51
2019-01-08T06:02:08.169Z,-8.49
2019-01-08T06:04:34.413Z,-8.47
2019-01-08T06:07:00.652Z,-8.49
2019-01-08T06:09:26.906Z,-8.48
2019-01-08T06:11:53.137Z,-8.49
2019-01-08T06:14:19.289Z,-8.49
2019-01-08T06:16:45.517Z,-8.47
2019-01-08T06:19:11.769Z,-8.46
2019-01-08T06:21:38.001Z,-8.47
2019-01-08T06:24:04.292Z,-8.47
2019-01-08T06:26:30.526Z,-8.49
2019-01-08T06:28:56.761Z,-8.54
2019-01-08T06:31:22.916Z,-8.55
2019-01-08T06:33:49.162Z,-8.56
2019-01-08T06:36:15.301Z,-8.54
2019-01-08T06:38:41.540Z,-8.52
2019-01-08T06:41:07.776Z,-8.52
2019-01-08T06:43:34.020Z,-8.53
2019-01-08T06:46:00.161Z,-8.56
2019-01-08T06:48:26.413Z,-8.57
2019-01-08T06:50:56.198Z,-8.55
2019-01-08T06:53:20.913Z,-8.55
2019-01-08T06:55:47.145Z,-8.52
2019-01-08T06:58:13.386Z,-8.52
2019-01-08T07:00:39.627Z,-8.50
2019-01-08T07:03:05.856Z,-8.50
2019-01-08T07:05:32.001Z,-8.47
2019-01-08T07:07:58.238Z,-8.48
2019-01-08T07:10:24.384Z,-8.52
2019-01-08T07:12:50.619Z,-8.53
2019-01-08T07:15:16.871Z,-8.53
2019-01-08T07:17:43.001Z,-8.55
2019-01-08T07:20:09.248Z,-8.57
2019-01-08T07:22:35.475Z,-8.59
2019-01-08T07:25:01.630Z,-8.63
2019-01-08T07:27:27.744Z,-8.66
2019-01-08T07:29:53.988Z,-8.68
2019-01-08T07:32:20.215Z,-8.67
2019-01-08T07:34:46.465Z,-8.65
2019-01-08T07:37:12.701Z,-8.65
2019-01-08T07:39:38.955Z,-8.68
2019-01-08T07:42:05.087Z,-8.72
2019-01-08T07:44:31.330Z,-8.71
2019-01-08T07:46:57.473Z,-8.80
2019-01-08T07:49:23.725Z,-8.74
2019-01-08T07:51:49.961Z,-8.79
2019-01-08T07:54:16.213Z,-8.83
2019-01-08T07:56:42.449Z,-8.85
2019-01-08T07:59:08.684Z,-8.83
2019-01-08T08:01:34.836Z,-8.85
2019-01-08T08:04:01.067Z,-8.89
2019-01-08T08:06:27.307Z,-8.91
2019-01-08T08:08:53.443Z,-8.93
2019-01-08T08:11:19.687Z,-8.96
2019-01-08T08:13:45.930Z,-8.95
2019-01-08T08:16:12.076Z,-8.93
2019-01-08T08:18:38.312Z,-8.92
2019-01-08T08:21:04.469Z,-8.93
2019-01-08T08:23:30.699Z,-8.94
2019-01-08T08:25:56.853Z,-8.93
2019-01-08T08:28:23.090Z,-8.92
2019-01-08T08:30:49.329Z,-8.94
2019-01-08T08:33:15.569Z,-8.95
2019-01-08T08:35:41.827Z,-9.06
2019-01-08T08:38:08.062Z,-8.99
2019-01-08T08:40:34.321Z,-8.99
2019-01-08T08:43:00.590Z,-8.96
2019-01-08T08:45:26.796Z,-8.92
2019-01-08T08:47:53.020Z,-8.88
2019-01-08T08:50:19.157Z,-8.86
2019-01-08T08:52:45.321Z,-8.87
2019-01-08T08:55:11.576Z,-8.86
2019-01-08T08:57:37.716Z,-8.82
2019-01-08T09:00:45.293Z,-8.78
2019-01-08T09:03:11.428Z,-8.80
2019-01-08T09:05:37.564Z,-8.79
2019-01-08T09:08:03.709Z,-8.80
2019-01-08T09:10:29.940Z,-8.82
2019-01-08T09:12:57.503Z,-8.87
2019-01-08T09:15:24.327Z,-8.92
2019-01-08T09:17:50.472Z,-8.86
2019-01-08T09:20:16.714Z,-8.82
2019-01-08T09:22:42.960Z,-8.80
2019-01-08T09:25:09.200Z,-8.79
2019-01-08T09:27:35.450Z,-8.78
2019-01-08T09:30:01.587Z,-8.79
2019-01-08T09:32:27.827Z,-8.75
2019-01-08T09:34:54.053Z,-8.67
2019-01-08T09:37:20.205Z,-8.62
2019-01-08T09:39:46.437Z,-8.54
2019-01-08T09:42:12.684Z,-8.51
2019-01-08T09:44:38.814Z,-8.50
2019-01-08T09:47:04.966Z,-8.45
2019-01-08T09:49:31.189Z,-8.36
2019-01-08T09:51:57.341Z,-8.31
2019-01-08T09:54:23.568Z,-8.28
2019-01-08T09:56:49.819Z,-8.25
2019-01-08T09:59:16.080Z,-8.26
2019-01-08T10:01:42.317Z,-8.24
2019-01-08T10:04:08.556Z,-8.19
2019-01-08T10:06:34.689Z,-8.15
2019-01-08T10:09:00.930Z,-8.09
2019-01-08T10:11:27.168Z,-8.05
2019-01-08T10:13:53.425Z,-8.02
2019-01-08T10:16:19.563Z,-8.00
2019-01-08T10:18:45.712Z,-7.96
2019-01-08T10:21:11.956Z,-7.97
2019-01-08T10:23:38.207Z,-7.95
2019-01-08T10:26:04.346Z,-7.90
2019-01-08T10:28:30.579Z,-7.90
2019-01-08T10:30:56.831Z,-7.91
2019-01-08T10:33:23.113Z,-7.87
2019-01-08T10:35:49.351Z,-7.79
2019-01-08T10:38:15.583Z,-7.77
2019-01-08T10:40:41.830Z,-7.75
2019-01-08T10:43:08.087Z,-7.74
2019-01-08T10:45:34.568Z,-7.73
2019-01-08T10:48:02.463Z,-7.70
2019-01-08T10:50:28.698Z,-7.65
2019-01-08T10:52:54.953Z,-8.61
2019-01-08T10:55:21.307Z,-7.59
2019-01-08T10:57:47.537Z,-7.54
2019-01-08T11:00:13.795Z,-7.50
2019-01-08T11:02:40.016Z,-7.46
2019-01-08T11:05:06.268Z,-7.44
2019-01-08T11:07:32.409Z,-7.43
2019-01-08T11:09:58.636Z,-7.42
2019-01-08T11:12:24.886Z,-7.41
2019-01-08T11:14:51.137Z,-7.40
2019-01-08T11:17:17.375Z,-7.41
2019-01-08T11:19:43.620Z,-7.39
2019-01-08T11:22:09.861Z,-7.40
2019-01-08T11:24:36.093Z,-7.38
2019-01-08T11:27:02.339Z,-7.37
2019-01-08T11:29:28.471Z,-7.35
2019-01-08T11:31:54.725Z,-7.38
2019-01-08T11:34:20.960Z,-7.39
2019-01-08T11:36:47.111Z,-7.41
2019-01-08T11:39:13.361Z,-7.42
2019-01-08T11:41:39.598Z,-7.44
2019-01-08T11:44:05.837Z,-7.45
2019-01-08T11:46:32.080Z,-7.46
2019-01-08T11:48:58.312Z,-7.46
2019-01-08T11:51:24.557Z,-7.46
2019-01-08T11:53:50.782Z,-7.46
2019-01-08T11:56:17.053Z,-7.48
2019-01-08T11:58:43.292Z,-7.48
2019-01-08T12:01:09.533Z,-7.47
2019-01-08T12:03:35.787Z,-7.44
2019-01-08T12:06:02.051Z,-7.46
2019-01-08T12:08:28.189Z,-7.52
2019-01-08T12:10:54.420Z,-7.56
2019-01-08T12:13:20.684Z,-7.59
2019-01-08T12:15:46.912Z,-7.62
2019-01-08T12:18:13.060Z,-7.61
2019-01-08T12:20:39.300Z,-7.62
2019-01-08T12:23:05.547Z,-7.57
2019-01-08T12:25:31.781Z,-7.63
2019-01-08T12:27:58.041Z,-7.63
2019-01-08T12:30:24.278Z,-7.66
2019-01-08T12:32:50.520Z,-7.66
2019-01-08T12:35:16.756Z,-7.67
2019-01-08T12:37:43.003Z,-7.75
2019-01-08T12:40:09.138Z,-7.81
2019-01-08T12:42:35.396Z,-7.83
2019-01-08T12:45:01.642Z,-7.81
2019-01-08T12:47:27.788Z,-7.82
2019-01-08T12:49:54.461Z,-7.76
2019-01-08T12:52:22.192Z,-7.73
2019-01-08T12:54:48.460Z,-7.78
2019-01-08T12:57:14.701Z,-7.80
2019-01-08T12:59:40.927Z,-7.87
2019-01-08T13:02:14.657Z,-7.86
2019-01-08T13:04:35.236Z,-7.82
2019-01-08T13:07:01.494Z,-7.81
2019-01-08T13:09:27.713Z,-7.81
2019-01-08T13:11:53.941Z,-7.80
2019-01-08T13:14:39.925Z,-7.79
2019-01-08T13:17:11.328Z,-8.29
2019-01-08T13:19:34.320Z,-7.82
2019-01-08T13:22:00.555Z,-7.88
2019-01-08T13:24:26.698Z,-7.90
2019-01-08T13:26:52.942Z,-7.91
2019-01-08T13:29:19.184Z,-7.94
2019-01-08T13:31:45.413Z,-7.94
2019-01-08T13:34:11.570Z,-7.96
2019-01-08T13:36:37.802Z,-7.96
2019-01-08T13:39:45.360Z,-7.97
2019-01-08T13:42:11.612Z,-7.97
2019-01-08T13:44:37.867Z,-8.00
2019-01-08T13:47:04.120Z,-8.00
2019-01-08T13:49:30.263Z,-7.99
2019-01-08T13:51:56.500Z,-8.00
2019-01-08T13:54:22.649Z,-8.01
2019-01-08T13:56:48.880Z,-8.06
2019-01-08T13:59:15.129Z,-8.07
2019-01-08T14:01:41.365Z,-8.00
2019-01-08T14:04:07.613Z,-7.98
2019-01-08T14:06:33.743Z,-7.98
2019-01-08T14:08:59.991Z,-7.98
2019-01-08T14:11:26.211Z,-8.00
2019-01-08T14:13:52.452Z,-8.01
2019-01-08T14:16:18.713Z,-8.03
2019-01-08T14:18:44.966Z,-8.04
2019-01-08T14:21:11.125Z,-8.05
2019-01-08T14:23:37.366Z,-8.06
2019-01-08T14:26:03.610Z,-8.05
2019-01-08T14:28:29.839Z,-8.02
2019-01-08T14:30:56.093Z,-8.02
2019-01-08T14:33:22.318Z,-8.03
2019-01-08T14:35:48.566Z,-8.06
2019-01-08T14:38:14.705Z,-8.06
2019-01-08T14:40:40.865Z,-8.08
2019-01-08T14:43:13.965Z,-8.07
2019-01-08T14:45:35.251Z,-8.05
2019-01-08T14:48:01.487Z,-8.09
2019-01-08T14:50:27.728Z,-8.16
2019-01-08T14:52:53.980Z,-8.21
2019-01-08T14:55:20.226Z,-8.26
2019-01-08T14:57:46.434Z,-8.28
2019-01-08T15:02:49.675Z,-8.37
2019-01-08T15:05:14.544Z,-8.37
2019-01-08T15:07:40.761Z,-8.38
2019-01-08T15:13:01.272Z,-8.41
2019-01-08T15:15:27.618Z,-8.44
2019-01-08T15:17:53.861Z,-8.45
2019-01-08T15:20:20.023Z,-8.46
2019-01-08T15:22:46.257Z,-8.48
2019-01-08T15:25:12.505Z,-8.52
2019-01-08T15:27:38.759Z,-8.52
2019-01-08T15:30:46.308Z,-8.53
2019-01-08T15:33:12.544Z,-8.55
2019-01-08T15:35:38.812Z,-8.56
2019-01-08T15:38:05.062Z,-8.57
2019-01-08T15:40:31.266Z,-8.54
2019-01-08T15:42:57.416Z,-8.48
2019-01-08T15:45:23.659Z,-8.47
2019-01-08T15:47:49.909Z,-8.44
2019-01-08T15:50:16.031Z,-8.47
2019-01-08T15:52:42.280Z,-8.49
2019-01-08T15:55:08.517Z,-8.55
2019-01-08T15:57:34.765Z,-8.55
2019-01-08T16:00:01.011Z,-8.58
2019-01-08T16:02:27.257Z,-8.58
2019-01-08T16:04:53.389Z,-8.57
2019-01-08T16:07:19.556Z,-8.63
2019-01-08T16:09:45.812Z,-8.67
2019-01-08T16:12:11.956Z,-8.71
2019-01-08T16:14:38.216Z,-8.73
2019-01-08T16:17:04.467Z,-8.74
2019-01-08T16:19:30.701Z,-8.77
2019-01-08T16:21:56.962Z,-8.81
2019-01-08T16:24:23.187Z,-8.79
2019-01-08T16:26:49.438Z,-8.80
2019-01-08T16:29:15.665Z,-8.84
2019-01-08T16:31:41.943Z,-8.87
2019-01-08T16:34:08.089Z,-8.92
2019-01-08T16:36:34.319Z,-8.85
2019-01-08T16:39:00.574Z,-8.77
2019-01-08T16:41:26.824Z,-8.73
2019-01-08T16:43:53.081Z,-8.68
2019-01-08T16:46:19.360Z,-8.65
2019-01-08T16:48:45.572Z,-8.66
2019-01-08T16:51:11.807Z,-8.68
2019-01-08T16:56:12.485Z,-8.64
2019-01-08T16:58:38.733Z,-8.69
2019-01-08T17:01:04.967Z,-8.69
2019-01-08T17:03:31.210Z,-8.71
2019-01-08T17:05:57.442Z,-8.78
2019-01-08T17:08:23.584Z,-8.79
2019-01-08T17:10:49.828Z,-8.79
2019-01-08T17:13:15.981Z,-8.85
2019-01-08T17:15:42.224Z,-8.89
2019-01-08T17:20:42.862Z,-9.03
2019-01-08T17:23:09.102Z,-9.14
2019-01-08T17:25:35.335Z,-9.19
2019-01-08T17:28:01.488Z,-9.23
2019-01-08T17:30:27.719Z,-9.30
2019-01-08T17:32:53.973Z,-9.40
2019-01-08T17:35:20.113Z,-9.53
2019-01-08T17:37:46.251Z,-9.62
2019-01-08T17:40:12.502Z,-9.72
2019-01-08T17:42:38.733Z,-9.84
2019-01-08T17:45:46.300Z,-9.87
2019-01-08T17:48:12.585Z,-9.92
2019-01-08T17:50:39.098Z,-10.01
2019-01-08T17:53:05.334Z,-10.08
2019-01-08T17:55:31.584Z,-10.09
2019-01-08T17:58:37.331Z,-10.11
2019-01-08T18:04:04.204Z,-10.17
2019-01-08T18:06:30.432Z,-10.19
2019-01-08T18:08:56.672Z,-10.26
2019-01-08T18:11:22.907Z,-10.34
2019-01-08T18:13:49.141Z,-10.40
2019-01-08T18:16:15.383Z,-10.40
2019-01-08T18:18:41.605Z,-10.34
2019-01-08T18:21:07.854Z,-10.30
2019-01-08T18:23:34.075Z,-10.31
2019-01-08T18:26:00.317Z,-10.36
2019-01-08T18:28:26.549Z,-10.39
2019-01-08T18:30:52.793Z,-10.53
2019-01-08T18:33:19.024Z,-10.56
2019-01-08T18:35:45.269Z,-10.49
2019-01-08T18:38:11.504Z,-10.44
2019-01-08T18:40:37.744Z,-10.43
2019-01-08T18:43:03.864Z,-10.34
2019-01-08T18:45:30.111Z,-10.29
2019-01-08T18:47:56.349Z,-10.28
2019-01-08T18:50:22.588Z,-10.25
2019-01-08T18:52:48.819Z,-10.24
2019-01-08T18:55:15.071Z,-10.16
2019-01-08T18:57:41.304Z,-10.09
2019-01-08T19:00:48.932Z,-10.00
2019-01-08T19:03:15.182Z,-9.92
2019-01-08T19:05:41.430Z,-9.83
2019-01-08T19:08:07.671Z,-9.75
2019-01-08T19:10:33.815Z,-9.66
2019-01-08T19:13:00.050Z,-9.52
2019-01-08T19:15:26.402Z,-9.43
2019-01-08T19:17:52.638Z,-9.29
2019-01-08T19:20:18.875Z,-9.21
2019-01-08T19:22:45.121Z,-9.18
2019-01-08T19:25:11.348Z,-9.13
2019-01-08T19:27:37.497Z,-9.13
2019-01-08T19:33:17.114Z,-9.06
2019-01-08T19:35:43.352Z,-9.04
2019-01-08T19:38:09.523Z,-9.03
2019-01-08T19:40:35.658Z,-9.05
2019-01-08T19:43:01.903Z,-9.04
2019-01-08T19:45:28.131Z,-9.00
2019-01-08T19:47:54.294Z,-8.93
2019-01-08T19:50:20.555Z,-8.91
2019-01-08T19:52:46.798Z,-8.92
2019-01-08T19:55:13.046Z,-8.89
2019-01-08T19:57:39.293Z,-8.87
2019-01-08T20:02:55.638Z,-8.86
2019-01-08T20:05:21.872Z,-8.84
2019-01-08T20:07:48.113Z,-8.77
2019-01-08T20:10:14.384Z,-8.70
2019-01-08T20:12:40.486Z,-8.62
2019-01-08T20:18:07.736Z,-8.70
2019-01-08T20:20:33.970Z,-8.71
2019-01-08T20:23:00.418Z,-8.73
2019-01-08T20:25:26.647Z,-8.68
2019-01-08T20:27:52.798Z,-8.44
2019-01-08T20:30:19.033Z,-8.40
2019-01-08T20:32:45.288Z,-8.19
2019-01-08T20:35:11.525Z,-8.16
2019-01-08T20:37:37.775Z,-8.07
2019-01-08T20:43:11.469Z,-8.09
2019-01-08T20:45:37.702Z,-8.01
2019-01-08T20:48:03.867Z,-7.98
2019-01-08T20:50:30.095Z,-8.01
2019-01-08T20:52:58.060Z,-7.88
2019-01-08T20:55:24.496Z,-7.75
2019-01-08T20:57:50.651Z,-7.73
2019-01-08T21:00:16.909Z,-7.67
2019-01-08T21:02:43.248Z,-7.51
2019-01-08T21:05:09.492Z,-7.20
2019-01-08T21:07:35.747Z,-7.14
2019-01-08T21:10:02.001Z,-7.19
2019-01-08T21:12:28.240Z,-7.06
2019-01-08T21:14:54.493Z,-7.00
2019-01-08T21:17:20.735Z,-6.95
2019-01-08T21:19:46.886Z,-7.05
2019-01-08T21:22:13.120Z,-6.94
2019-01-08T21:24:39.353Z,-6.96
2019-01-08T21:27:05.585Z,-6.96
2019-01-08T21:29:31.741Z,-6.90
2019-01-08T21:31:57.968Z,-6.84
2019-01-08T21:34:24.219Z,-6.78
2019-01-08T21:36:50.364Z,-6.76
2019-01-08T21:39:16.603Z,-6.78
2019-01-08T21:41:42.853Z,-6.84
2019-01-08T21:44:09.120Z,-6.65
2019-01-08T21:46:35.356Z,-6.59
2019-01-08T21:49:01.724Z,-6.59
2019-01-08T21:51:27.846Z,-6.60
2019-01-08T21:53:54.097Z,-6.51
2019-01-08T21:56:20.399Z,-6.29
2019-01-08T21:58:46.646Z,-6.32
2019-01-08T22:01:12.898Z,-6.29
2019-01-08T22:03:39.125Z,-6.32
2019-01-08T22:06:05.279Z,-6.38
2019-01-08T22:08:31.609Z,-6.28
2019-01-08T22:10:57.860Z,-6.28
2019-01-08T22:13:23.999Z,-6.40
2019-01-08T22:15:50.146Z,-6.37
2019-01-08T22:18:16.281Z,-6.43
2019-01-08T22:20:42.521Z,-6.53
2019-01-08T22:23:08.850Z,-6.60
2019-01-08T22:25:35.089Z,-6.57
2019-01-08T22:28:01.322Z,-6.53
2019-01-08T22:30:27.569Z,-6.35
2019-01-08T22:32:53.796Z,-6.32
2019-01-08T22:35:20.044Z,-6.20
2019-01-08T22:37:46.277Z,-6.21
2019-01-08T22:40:12.551Z,-6.26
2019-01-08T22:42:38.779Z,-6.31
2019-01-08T22:45:46.338Z,-5.99
2019-01-08T22:48:12.486Z,-5.94
2019-01-08T22:50:38.734Z,-5.91
2019-01-08T22:53:04.981Z,-5.98
2019-01-08T22:55:31.146Z,-5.93
2019-01-08T22:58:38.690Z,-5.88
2019-01-08T23:03:38.896Z,-6.04
2019-01-08T23:06:05.142Z,-6.10
2019-01-08T23:08:31.376Z,-6.16
2019-01-08T23:10:57.513Z,-6.16
2019-01-08T23:13:23.750Z,-6.14
2019-01-08T23:15:49.994Z,-6.07
2019-01-08T23:18:16.232Z,-6.11
2019-01-08T23:20:42.466Z,-6.12
2019-01-08T23:23:08.607Z,-6.00
2019-01-08T23:25:34.940Z,-6.05
2019-01-08T23:28:01.190Z,-6.09
2019-01-08T23:30:27.426Z,-6.11
2019-01-08T23:32:53.560Z,-6.08
2019-01-08T23:35:19.870Z,-6.07
2019-01-08T23:37:46.137Z,-6.09
2019-01-08T23:40:12.460Z,-5.98
2019-01-08T23:42:38.704Z,-5.96
2019-01-08T23:48:18.288Z,-6.08
2019-01-08T23:50:44.509Z,-6.11
2019-01-08T23:53:52.071Z,-6.09
2019-01-08T23:56:18.296Z,-6.15
2019-01-08T23:58:44.568Z,-6.13
